VLG9GE LEBL-EGKK
Flight info
| Callsign | VLG9GE |
|---|---|
| Flight time | N/A |
| Altitude | 34000 |
| Route | NATPI DCT EVNAM DCT AGN DCT SECHE DCT UVELI DCT CNA DCT MANAK DCT EPAPU UM184 EKRAS UT507 REVTU UP88 VASUX |
| Aircraft | A321/M-SDFGHILORVWXY/LB1 |
Departure
| Time | 2026-05-07 13:01 |
|---|---|
| Airport | Josep Tarradellas Barcelona-El Prat Airport (LEBL) |
Arrival
| Time | N/A |
|---|---|
| Airport | London Gatwick Airport (EGKK) |
| Time | Latitude | Longitude | Altitude | Speed | Heading |
|---|---|---|---|---|---|
| 2026-05-07 12:30 | 41.28760 | 2.07754 | 19 ft | 0 kts | 300° |
| 2026-05-07 12:32 | 41.28759 | 2.07754 | 19 ft | 0 kts | 300° |
| 2026-05-07 12:50 | 41.28759 | 2.07755 | 19 ft | 0 kts | 300° |
| 2026-05-07 12:53 | 41.28749 | 2.07777 | 21 ft | 4 kts | 300° |
| 2026-05-07 12:53 | 41.28736 | 2.07808 | 20 ft | 4 kts | 300° |
| 2026-05-07 12:53 | 41.28722 | 2.07839 | 21 ft | 4 kts | 300° |
| 2026-05-07 12:53 | 41.28709 | 2.07870 | 17 ft | 4 kts | 302° |
| 2026-05-07 12:54 | 41.28693 | 2.07899 | 19 ft | 4 kts | 312° |
| 2026-05-07 12:54 | 41.28682 | 2.07915 | 19 ft | 1 kts | 310° |
| 2026-05-07 12:54 | 41.28680 | 2.07918 | 18 ft | 2 kts | 310° |
| 2026-05-07 12:58 | 41.28682 | 2.07914 | 18 ft | 1 kts | 297° |
| 2026-05-07 12:58 | 41.28678 | 2.07908 | 19 ft | 1 kts | 239° |
| 2026-05-07 12:58 | 41.28654 | 2.07858 | 16 ft | 10 kts | 244° |
| 2026-05-07 12:58 | 41.28624 | 2.07769 | 19 ft | 11 kts | 244° |
| 2026-05-07 12:59 | 41.28560 | 2.07728 | 16 ft | 14 kts | 173° |
| 2026-05-07 12:59 | 41.28506 | 2.07692 | 17 ft | 10 kts | 225° |
| 2026-05-07 12:59 | 41.28471 | 2.07593 | 16 ft | 14 kts | 246° |
| 2026-05-07 12:59 | 41.28428 | 2.07465 | 17 ft | 16 kts | 246° |
| 2026-05-07 13:00 | 41.28361 | 2.07345 | 16 ft | 17 kts | 201° |
| 2026-05-07 13:00 | 41.28272 | 2.07371 | 18 ft | 11 kts | 157° |
| 2026-05-07 13:00 | 41.28232 | 2.07432 | 19 ft | 10 kts | 84° |
| 2026-05-07 13:00 | 41.28298 | 2.07634 | 22 ft | 52 kts | 67° |
| 2026-05-07 13:01 | 41.28545 | 2.08356 | 23 ft | 117 kts | 65° |
| 2026-05-07 13:01 | 41.28953 | 2.09551 | 120 ft | 156 kts | 69° |
| 2026-05-07 13:01 | 41.29324 | 2.10859 | 834 ft | 152 kts | 86° |
| 2026-05-07 13:01 | 41.29262 | 2.12319 | 1335 ft | 165 kts | 98° |
| 2026-05-07 13:02 | 41.29109 | 2.13901 | 1734 ft | 179 kts | 99° |
| 2026-05-07 13:02 | 41.28947 | 2.15588 | 2158 ft | 190 kts | 98° |
| 2026-05-07 13:02 | 41.28775 | 2.17386 | 2570 ft | 200 kts | 98° |
| 2026-05-07 13:02 | 41.28619 | 2.19264 | 2998 ft | 214 kts | 91° |
| 2026-05-07 13:03 | 41.29030 | 2.21249 | 3265 ft | 238 kts | 56° |
| 2026-05-07 13:03 | 41.30325 | 2.22748 | 3615 ft | 258 kts | 32° |
| 2026-05-07 13:03 | 41.31879 | 2.23993 | 4293 ft | 263 kts | 31° |
| 2026-05-07 13:03 | 41.33465 | 2.25233 | 5055 ft | 265 kts | 30° |
| 2026-05-07 13:04 | 41.35181 | 2.26126 | 5783 ft | 268 kts | 8° |
| 2026-05-07 13:04 | 41.37036 | 2.26003 | 6501 ft | 270 kts | 343° |
| 2026-05-07 13:04 | 41.38741 | 2.24933 | 7185 ft | 273 kts | 331° |
| 2026-05-07 13:04 | 41.40407 | 2.23693 | 7855 ft | 276 kts | 330° |
| 2026-05-07 13:05 | 41.42093 | 2.22432 | 8557 ft | 280 kts | 330° |
| 2026-05-07 13:05 | 41.43796 | 2.21160 | 9245 ft | 283 kts | 330° |
| 2026-05-07 13:05 | 41.45530 | 2.19867 | 9945 ft | 287 kts | 330° |
| 2026-05-07 13:05 | 41.47302 | 2.18548 | 10320 ft | 302 kts | 330° |
| 2026-05-07 13:06 | 41.49204 | 2.17136 | 10452 ft | 324 kts | 330° |
| 2026-05-07 13:06 | 41.51226 | 2.15638 | 10761 ft | 338 kts | 330° |
| 2026-05-07 13:06 | 41.53295 | 2.14105 | 11328 ft | 343 kts | 330° |
| 2026-05-07 13:06 | 41.55394 | 2.12545 | 11941 ft | 347 kts | 329° |
| 2026-05-07 13:07 | 41.57519 | 2.10963 | 12546 ft | 352 kts | 329° |
| 2026-05-07 13:07 | 41.59672 | 2.09360 | 13138 ft | 356 kts | 329° |
| 2026-05-07 13:07 | 41.61850 | 2.07741 | 13732 ft | 361 kts | 329° |
| 2026-05-07 13:07 | 41.64055 | 2.06098 | 14279 ft | 365 kts | 329° |
| 2026-05-07 13:08 | 41.66283 | 2.04432 | 14852 ft | 369 kts | 329° |
| 2026-05-07 13:08 | 41.68560 | 2.02727 | 15420 ft | 372 kts | 329° |
| 2026-05-07 13:08 | 41.70827 | 2.01030 | 16010 ft | 375 kts | 329° |
| 2026-05-07 13:08 | 41.73115 | 1.99316 | 16583 ft | 378 kts | 329° |
| 2026-05-07 13:09 | 41.75419 | 1.97591 | 17159 ft | 381 kts | 328° |
| 2026-05-07 13:09 | 41.77739 | 1.95852 | 17724 ft | 384 kts | 328° |
| 2026-05-07 13:09 | 41.80084 | 1.94093 | 18292 ft | 387 kts | 328° |
| 2026-05-07 13:09 | 41.82444 | 1.92320 | 18782 ft | 390 kts | 328° |
| 2026-05-07 13:10 | 41.84820 | 1.90532 | 19290 ft | 393 kts | 328° |
| 2026-05-07 13:10 | 41.87212 | 1.88729 | 19785 ft | 396 kts | 328° |
| 2026-05-07 13:10 | 41.89618 | 1.86914 | 20288 ft | 398 kts | 328° |
| 2026-05-07 13:10 | 41.92041 | 1.85088 | 20777 ft | 401 kts | 328° |
| 2026-05-07 13:11 | 41.94484 | 1.83250 | 21280 ft | 404 kts | 328° |
| 2026-05-07 13:11 | 41.96946 | 1.81396 | 21801 ft | 407 kts | 328° |
| 2026-05-07 13:11 | 41.99420 | 1.79529 | 22282 ft | 410 kts | 328° |
| 2026-05-07 13:11 | 42.01916 | 1.77643 | 22752 ft | 412 kts | 327° |
| 2026-05-07 13:12 | 42.04425 | 1.75740 | 23210 ft | 415 kts | 327° |
| 2026-05-07 13:12 | 42.06944 | 1.73827 | 23632 ft | 418 kts | 327° |
| 2026-05-07 13:12 | 42.09489 | 1.71892 | 24007 ft | 421 kts | 327° |
| 2026-05-07 13:12 | 42.12044 | 1.69948 | 24365 ft | 423 kts | 327° |
| 2026-05-07 13:13 | 42.14616 | 1.67992 | 24744 ft | 426 kts | 327° |
| 2026-05-07 13:13 | 42.17203 | 1.66022 | 25107 ft | 428 kts | 327° |
| 2026-05-07 13:13 | 42.19807 | 1.64038 | 25462 ft | 431 kts | 327° |
| 2026-05-07 13:13 | 42.22421 | 1.62047 | 25811 ft | 433 kts | 327° |
| 2026-05-07 13:14 | 42.25049 | 1.60046 | 26160 ft | 435 kts | 327° |
| 2026-05-07 13:14 | 42.27689 | 1.58031 | 26522 ft | 437 kts | 326° |
| 2026-05-07 13:14 | 42.30343 | 1.56002 | 26873 ft | 439 kts | 326° |
| 2026-05-07 13:14 | 42.33006 | 1.53962 | 27190 ft | 442 kts | 326° |
| 2026-05-07 13:15 | 42.35687 | 1.51905 | 27517 ft | 444 kts | 326° |
| 2026-05-07 13:15 | 42.38375 | 1.49840 | 27843 ft | 446 kts | 326° |
| 2026-05-07 13:15 | 42.41084 | 1.47764 | 28185 ft | 448 kts | 326° |
| 2026-05-07 13:15 | 42.43804 | 1.45680 | 28528 ft | 451 kts | 326° |
| 2026-05-07 13:16 | 42.46537 | 1.43581 | 28858 ft | 453 kts | 326° |
| 2026-05-07 13:16 | 42.49319 | 1.41437 | 29192 ft | 455 kts | 326° |
| 2026-05-07 13:16 | 42.52041 | 1.39336 | 29454 ft | 457 kts | 326° |
| 2026-05-07 13:16 | 42.54845 | 1.37172 | 29781 ft | 459 kts | 326° |
| 2026-05-07 13:17 | 42.57628 | 1.35022 | 30104 ft | 461 kts | 326° |
| 2026-05-07 13:17 | 42.60426 | 1.32860 | 30387 ft | 463 kts | 326° |
| 2026-05-07 13:17 | 42.63234 | 1.30690 | 30667 ft | 466 kts | 326° |
| 2026-05-07 13:17 | 42.66051 | 1.28507 | 30979 ft | 466 kts | 326° |
| 2026-05-07 13:18 | 42.68862 | 1.26331 | 31353 ft | 465 kts | 327° |
| 2026-05-07 13:18 | 42.71822 | 1.24505 | 31711 ft | 470 kts | 336° |
| 2026-05-07 13:18 | 42.74982 | 1.23324 | 32055 ft | 474 kts | 346° |
| 2026-05-07 13:18 | 42.78266 | 1.22763 | 32385 ft | 476 kts | 351° |
| 2026-05-07 13:19 | 42.81563 | 1.22327 | 32718 ft | 475 kts | 351° |
| 2026-05-07 13:19 | 42.84849 | 1.21885 | 32978 ft | 475 kts | 351° |
| 2026-05-07 13:19 | 42.88131 | 1.21432 | 33299 ft | 474 kts | 350° |
| 2026-05-07 13:19 | 42.91417 | 1.20973 | 33662 ft | 473 kts | 350° |
| 2026-05-07 13:20 | 42.94687 | 1.20518 | 33936 ft | 473 kts | 351° |
| 2026-05-07 13:20 | 42.97941 | 1.20069 | 33988 ft | 466 kts | 351° |
| 2026-05-07 13:20 | 43.04347 | 1.19195 | 33988 ft | 461 kts | 351° |
| 2026-05-07 13:21 | 43.10721 | 1.18313 | 33983 ft | 460 kts | 351° |
| 2026-05-07 13:21 | 43.17083 | 1.17424 | 33986 ft | 460 kts | 351° |
| 2026-05-07 13:22 | 43.23447 | 1.16547 | 33990 ft | 459 kts | 351° |
| 2026-05-07 13:22 | 43.29812 | 1.15660 | 34004 ft | 460 kts | 351° |
| 2026-05-07 13:23 | 43.36176 | 1.14767 | 34011 ft | 460 kts | 351° |
| 2026-05-07 13:23 | 43.42537 | 1.13878 | 34017 ft | 459 kts | 351° |
| 2026-05-07 13:24 | 43.47864 | 1.13134 | 34019 ft | 459 kts | 351° |
| 2026-05-07 13:24 | 43.54217 | 1.12255 | 34020 ft | 459 kts | 351° |
| 2026-05-07 13:25 | 43.60427 | 1.10602 | 34021 ft | 452 kts | 336° |
| 2026-05-07 13:25 | 43.65949 | 1.06683 | 34014 ft | 445 kts | 324° |
| 2026-05-07 13:26 | 43.71219 | 1.02190 | 34012 ft | 445 kts | 325° |
| 2026-05-07 13:26 | 43.76504 | 0.97735 | 34012 ft | 445 kts | 325° |
| 2026-05-07 13:27 | 43.81796 | 0.93268 | 34009 ft | 445 kts | 325° |
| 2026-05-07 13:27 | 43.87075 | 0.88770 | 34006 ft | 445 kts | 324° |
| 2026-05-07 13:28 | 43.92601 | 0.84830 | 34014 ft | 448 kts | 332° |
| 2026-05-07 13:28 | 43.98264 | 0.81196 | 34017 ft | 448 kts | 332° |
| 2026-05-07 13:29 | 44.03920 | 0.77549 | 34025 ft | 448 kts | 332° |
| 2026-05-07 13:29 | 44.09616 | 0.73860 | 34021 ft | 448 kts | 332° |
| 2026-05-07 13:30 | 44.15269 | 0.70192 | 34022 ft | 448 kts | 332° |
| 2026-05-07 13:30 | 44.20918 | 0.66522 | 34019 ft | 448 kts | 332° |
| 2026-05-07 13:31 | 44.26572 | 0.62846 | 34022 ft | 448 kts | 332° |
| 2026-05-07 13:31 | 44.32220 | 0.59162 | 34003 ft | 448 kts | 332° |
| 2026-05-07 13:32 | 44.37860 | 0.55473 | 34012 ft | 448 kts | 331° |
| 2026-05-07 13:32 | 44.43502 | 0.51768 | 34007 ft | 448 kts | 332° |
| 2026-05-07 13:33 | 44.49140 | 0.48057 | 34009 ft | 448 kts | 331° |
| 2026-05-07 13:33 | 44.54775 | 0.44315 | 34005 ft | 448 kts | 331° |
| 2026-05-07 13:34 | 44.63218 | 0.38681 | 34012 ft | 448 kts | 331° |
| 2026-05-07 13:35 | 44.68851 | 0.34920 | 34012 ft | 448 kts | 331° |
| 2026-05-07 13:35 | 44.74485 | 0.31159 | 34016 ft | 448 kts | 331° |
| 2026-05-07 13:36 | 44.80119 | 0.27377 | 34020 ft | 449 kts | 331° |
| 2026-05-07 13:36 | 44.85757 | 0.23595 | 34018 ft | 449 kts | 331° |
| 2026-05-07 13:37 | 44.91397 | 0.19812 | 34016 ft | 449 kts | 330° |
| 2026-05-07 13:37 | 44.97031 | 0.16008 | 34012 ft | 449 kts | 330° |
| 2026-05-07 13:38 | 45.02700 | 0.12175 | 34019 ft | 449 kts | 330° |
| 2026-05-07 13:38 | 45.08329 | 0.08351 | 34016 ft | 449 kts | 330° |
| 2026-05-07 13:39 | 45.13956 | 0.04529 | 34015 ft | 449 kts | 330° |
| 2026-05-07 13:39 | 45.19588 | 0.00709 | 34015 ft | 448 kts | 330° |
| 2026-05-07 13:40 | 45.25206 | -0.03116 | 34013 ft | 448 kts | 330° |
| 2026-05-07 13:40 | 45.30821 | -0.06961 | 34012 ft | 448 kts | 330° |
| 2026-05-07 13:41 | 45.36432 | -0.10808 | 34011 ft | 448 kts | 330° |
| 2026-05-07 13:41 | 45.42047 | -0.14655 | 34011 ft | 448 kts | 330° |
| 2026-05-07 13:42 | 45.47666 | -0.18516 | 34019 ft | 448 kts | 330° |
| 2026-05-07 13:42 | 45.53276 | -0.22392 | 34021 ft | 448 kts | 330° |
| 2026-05-07 13:43 | 45.58885 | -0.26267 | 34031 ft | 448 kts | 330° |
| 2026-05-07 13:43 | 45.64491 | -0.30160 | 34032 ft | 447 kts | 327° |
| 2026-05-07 13:44 | 45.69536 | -0.35172 | 34020 ft | 440 kts | 317° |
| 2026-05-07 13:44 | 45.74382 | -0.40638 | 34026 ft | 441 kts | 317° |
| 2026-05-07 13:45 | 45.79194 | -0.46074 | 34018 ft | 441 kts | 317° |
| 2026-05-07 13:45 | 45.84004 | -0.51526 | 34016 ft | 441 kts | 317° |
| 2026-05-07 13:46 | 45.88812 | -0.56977 | 34022 ft | 441 kts | 317° |
| 2026-05-07 13:46 | 45.93630 | -0.62437 | 34016 ft | 441 kts | 317° |
| 2026-05-07 13:47 | 45.98428 | -0.67899 | 34010 ft | 441 kts | 317° |
| 2026-05-07 13:47 | 46.03224 | -0.73387 | 34000 ft | 441 kts | 317° |
| 2026-05-07 13:48 | 46.08018 | -0.78888 | 34004 ft | 441 kts | 317° |
| 2026-05-07 13:48 | 46.12816 | -0.84391 | 34011 ft | 441 kts | 317° |
| 2026-05-07 13:49 | 46.17614 | -0.89892 | 34015 ft | 440 kts | 317° |
| 2026-05-07 13:49 | 46.22946 | -0.94347 | 34017 ft | 449 kts | 336° |
| 2026-05-07 13:50 | 46.29046 | -0.96540 | 34018 ft | 453 kts | 345° |
| 2026-05-07 13:50 | 46.35219 | -0.98424 | 34014 ft | 453 kts | 345° |
| 2026-05-07 13:51 | 46.41389 | -1.00328 | 34015 ft | 453 kts | 345° |
| 2026-05-07 13:51 | 46.47560 | -1.02244 | 34018 ft | 453 kts | 345° |
| 2026-05-07 13:52 | 46.53721 | -1.04141 | 34022 ft | 453 kts | 345° |
| 2026-05-07 13:52 | 46.59883 | -1.06045 | 34028 ft | 452 kts | 345° |
| 2026-05-07 13:53 | 46.66080 | -1.07968 | 34027 ft | 452 kts | 345° |
| 2026-05-07 13:53 | 46.72234 | -1.09870 | 34028 ft | 452 kts | 345° |
| 2026-05-07 13:54 | 46.78378 | -1.11787 | 34029 ft | 451 kts | 345° |
| 2026-05-07 13:54 | 46.84512 | -1.13706 | 34030 ft | 451 kts | 345° |
| 2026-05-07 13:55 | 46.90647 | -1.15622 | 34030 ft | 450 kts | 345° |
| 2026-05-07 13:55 | 46.96768 | -1.17548 | 34028 ft | 450 kts | 345° |
| 2026-05-07 13:56 | 47.02891 | -1.19477 | 34027 ft | 450 kts | 345° |
| 2026-05-07 13:56 | 47.09009 | -1.21399 | 34027 ft | 449 kts | 345° |
| 2026-05-07 13:57 | 47.14087 | -1.22998 | 34023 ft | 449 kts | 345° |
| 2026-05-07 13:57 | 47.20232 | -1.24945 | 34022 ft | 448 kts | 345° |
| 2026-05-07 13:58 | 47.26286 | -1.26878 | 34017 ft | 448 kts | 345° |
| 2026-05-07 13:58 | 47.32418 | -1.28821 | 34019 ft | 448 kts | 345° |
| 2026-05-07 13:59 | 47.38505 | -1.30761 | 34018 ft | 447 kts | 345° |
| 2026-05-07 13:59 | 47.44582 | -1.32710 | 34012 ft | 447 kts | 345° |
| 2026-05-07 14:00 | 47.50662 | -1.34649 | 34016 ft | 447 kts | 345° |
| 2026-05-07 14:00 | 47.56738 | -1.36595 | 34019 ft | 447 kts | 345° |
| 2026-05-07 14:01 | 47.62816 | -1.38548 | 34018 ft | 447 kts | 345° |
| 2026-05-07 14:01 | 47.68889 | -1.40509 | 34022 ft | 447 kts | 345° |
| 2026-05-07 14:02 | 47.75081 | -1.41497 | 34031 ft | 449 kts | 355° |
| 2026-05-07 14:02 | 47.81326 | -1.41956 | 34032 ft | 449 kts | 355° |
| 2026-05-07 14:03 | 47.87569 | -1.42441 | 34037 ft | 449 kts | 355° |
| 2026-05-07 14:03 | 47.93816 | -1.42924 | 34040 ft | 450 kts | 355° |
| 2026-05-07 14:04 | 48.00068 | -1.43398 | 34041 ft | 450 kts | 355° |
| 2026-05-07 14:04 | 48.06318 | -1.43865 | 34043 ft | 450 kts | 355° |
| 2026-05-07 14:05 | 48.12568 | -1.44307 | 34043 ft | 450 kts | 355° |
| 2026-05-07 14:05 | 48.18827 | -1.44735 | 34043 ft | 450 kts | 355° |
| 2026-05-07 14:06 | 48.25086 | -1.45178 | 34039 ft | 450 kts | 355° |
| 2026-05-07 14:06 | 48.31377 | -1.45631 | 34038 ft | 450 kts | 355° |
| 2026-05-07 14:07 | 48.37629 | -1.46081 | 34040 ft | 449 kts | 355° |
| 2026-05-07 14:07 | 48.43874 | -1.46537 | 34041 ft | 449 kts | 355° |
| 2026-05-07 14:08 | 48.50111 | -1.47002 | 34044 ft | 449 kts | 355° |
| 2026-05-07 14:08 | 48.56345 | -1.47459 | 34047 ft | 448 kts | 355° |
| 2026-05-07 14:09 | 48.62573 | -1.47908 | 34046 ft | 448 kts | 355° |
| 2026-05-07 14:09 | 48.68797 | -1.48361 | 34045 ft | 448 kts | 355° |
| 2026-05-07 14:10 | 48.75018 | -1.48811 | 34051 ft | 447 kts | 355° |
| 2026-05-07 14:10 | 48.81231 | -1.49270 | 34049 ft | 447 kts | 355° |
| 2026-05-07 14:11 | 48.87439 | -1.49729 | 34044 ft | 446 kts | 355° |
| 2026-05-07 14:11 | 48.93552 | -1.51072 | 34042 ft | 443 kts | 346° |
| 2026-05-07 14:12 | 48.99584 | -1.53022 | 34047 ft | 443 kts | 346° |
| 2026-05-07 14:12 | 49.05620 | -1.54963 | 34046 ft | 443 kts | 346° |
| 2026-05-07 14:13 | 49.11703 | -1.56912 | 34050 ft | 444 kts | 346° |
| 2026-05-07 14:13 | 49.17749 | -1.58845 | 34047 ft | 444 kts | 346° |
| 2026-05-07 14:14 | 49.23795 | -1.60806 | 34051 ft | 444 kts | 346° |
| 2026-05-07 14:14 | 49.29837 | -1.62775 | 34050 ft | 444 kts | 346° |
| 2026-05-07 14:15 | 49.35883 | -1.64747 | 34053 ft | 444 kts | 346° |
| 2026-05-07 14:15 | 49.41932 | -1.66719 | 34062 ft | 444 kts | 346° |
| 2026-05-07 14:16 | 49.47973 | -1.68706 | 34067 ft | 444 kts | 346° |
| 2026-05-07 14:16 | 49.54010 | -1.70687 | 34074 ft | 444 kts | 346° |
| 2026-05-07 14:17 | 49.60167 | -1.71348 | 34068 ft | 448 kts | 4° |
| 2026-05-07 14:17 | 49.66207 | -1.68984 | 34066 ft | 450 kts | 19° |
| 2026-05-07 14:18 | 49.72150 | -1.65684 | 34056 ft | 460 kts | 18° |
| 2026-05-07 14:18 | 49.78206 | -1.62353 | 34056 ft | 463 kts | 18° |
| 2026-05-07 14:19 | 49.84271 | -1.58989 | 34055 ft | 463 kts | 18° |
| 2026-05-07 14:19 | 49.90334 | -1.55605 | 34049 ft | 463 kts | 18° |
| 2026-05-07 14:20 | 49.96402 | -1.52217 | 34046 ft | 463 kts | 18° |
| 2026-05-07 14:20 | 50.02519 | -1.48853 | 34067 ft | 463 kts | 17° |
| 2026-05-07 14:21 | 50.08674 | -1.45843 | 34071 ft | 463 kts | 15° |
| 2026-05-07 14:21 | 50.14845 | -1.42953 | 34074 ft | 463 kts | 15° |
| 2026-05-07 14:22 | 50.21009 | -1.39979 | 34077 ft | 463 kts | 15° |
| 2026-05-07 14:22 | 50.27153 | -1.36936 | 34068 ft | 463 kts | 16° |
| 2026-05-07 14:23 | 50.33297 | -1.33878 | 34074 ft | 463 kts | 15° |
| 2026-05-07 14:23 | 50.39442 | -1.30830 | 34079 ft | 463 kts | 15° |
| 2026-05-07 14:24 | 50.45589 | -1.27788 | 34082 ft | 463 kts | 15° |
| 2026-05-07 14:24 | 50.51490 | -1.23783 | 34073 ft | 466 kts | 35° |
| 2026-05-07 14:25 | 50.56522 | -1.17317 | 34076 ft | 468 kts | 39° |
| 2026-05-07 14:25 | 50.61507 | -1.10741 | 34070 ft | 468 kts | 39° |
| 2026-05-07 14:26 | 50.66379 | -1.03940 | 34067 ft | 469 kts | 49° |
| 2026-05-07 14:26 | 50.70535 | -0.95993 | 34084 ft | 470 kts | 50° |
| 2026-05-07 14:27 | 50.74674 | -0.88015 | 34080 ft | 470 kts | 50° |
| 2026-05-07 14:27 | 50.78800 | -0.80007 | 34083 ft | 470 kts | 50° |
| 2026-05-07 14:27 | 50.80674 | -0.75785 | 34074 ft | 470 kts | 65° |
| 2026-05-07 14:28 | 50.81669 | -0.70902 | 34087 ft | 467 kts | 79° |
| 2026-05-07 14:28 | 50.82864 | -0.60947 | 34080 ft | 468 kts | 80° |
| 2026-05-07 14:29 | 50.83971 | -0.51119 | 34081 ft | 468 kts | 81° |
| 2026-05-07 14:29 | 50.85108 | -0.40965 | 34084 ft | 469 kts | 81° |
| 2026-05-07 14:30 | 50.86071 | -0.32527 | 34088 ft | 469 kts | 80° |
| 2026-05-07 14:30 | 50.87226 | -0.22359 | 34087 ft | 469 kts | 81° |
| 2026-05-07 14:31 | 50.88368 | -0.12187 | 34093 ft | 469 kts | 80° |
| 2026-05-07 14:31 | 50.89255 | -0.07227 | 34081 ft | 469 kts | 63° |
| 2026-05-07 14:31 | 50.91105 | -0.03028 | 34081 ft | 465 kts | 42° |
| 2026-05-07 14:31 | 50.93723 | -0.00144 | 34072 ft | 458 kts | 21° |
| 2026-05-07 14:32 | 50.96768 | 0.01084 | 34064 ft | 450 kts | 359° |
| 2026-05-07 14:32 | 50.99356 | 0.00724 | 34059 ft | 442 kts | 341° |
| 2026-05-07 14:32 | 51.02109 | -0.01283 | 34054 ft | 433 kts | 320° |
| 2026-05-07 14:32 | 51.04173 | -0.04750 | 34049 ft | 424 kts | 298° |
| 2026-05-07 14:33 | 51.05214 | -0.09056 | 34049 ft | 418 kts | 276° |
| 2026-05-07 14:33 | 51.05229 | -0.13653 | 34076 ft | 418 kts | 264° |
| 2026-05-07 14:33 | 51.04984 | -0.18290 | 34083 ft | 422 kts | 264° |
| 2026-05-07 14:33 | 51.04745 | -0.22872 | 34080 ft | 409 kts | 264° |
| 2026-05-07 14:34 | 51.04516 | -0.27292 | 34080 ft | 394 kts | 264° |
| 2026-05-07 14:34 | 51.04294 | -0.31551 | 34078 ft | 380 kts | 264° |
| 2026-05-07 14:34 | 51.04081 | -0.35666 | 34077 ft | 367 kts | 264° |
| 2026-05-07 14:35 | 51.03670 | -0.43650 | 34077 ft | 361 kts | 264° |